sensor_id;sensor_type;location;lat;lon;timestamp;pressure;altitude;pressure_sealevel;temperature;humidity
20444;BME280;10381;53.730;10.010;2023-09-30T00:03:53;100521.13;;;10.91;100.00
20444;BME280;10381;53.730;10.010;2023-09-30T00:07:53;100517.34;;;10.94;100.00
20444;BME280;10381;53.730;10.010;2023-09-30T00:11:54;100524.78;;;10.90;100.00
20444;BME280;10381;53.730;10.010;2023-09-30T00:15:55;100524.91;;;10.88;100.00
20444;BME280;10381;53.730;10.010;2023-09-30T00:19:55;100514.31;;;10.88;100.00
20444;BME280;10381;53.730;10.010;2023-09-30T00:23:56;100519.50;;;10.80;100.00
20444;BME280;10381;53.730;10.010;2023-09-30T00:27:56;100522.28;;;10.79;100.00
20444;BME280;10381;53.730;10.010;2023-09-30T00:31:57;100518.63;;;10.99;100.00
20444;BME280;10381;53.730;10.010;2023-09-30T00:35:57;100519.03;;;10.95;100.00
20444;BME280;10381;53.730;10.010;2023-09-30T00:39:57;100521.00;;;10.93;100.00
20444;BME280;10381;53.730;10.010;2023-09-30T00:43:58;100516.25;;;10.86;100.00
20444;BME280;10381;53.730;10.010;2023-09-30T00:47:59;100516.25;;;10.86;100.00
20444;BME280;10381;53.730;10.010;2023-09-30T00:51:59;100517.69;;;10.81;100.00
20444;BME280;10381;53.730;10.010;2023-09-30T00:56:00;100515.59;;;10.75;100.00
20444;BME280;10381;53.730;10.010;2023-09-30T01:00:00;100514.50;;;10.68;100.00
20444;BME280;10381;53.730;10.010;2023-09-30T01:04:01;100482.53;;;10.79;100.00
20444;BME280;10381;53.730;10.010;2023-09-30T01:08:02;100395.41;;;10.76;100.00
20444;BME280;10381;53.730;10.010;2023-09-30T01:12:03;100359.44;;;10.73;100.00
20444;BME280;10381;53.730;10.010;2023-09-30T01:16:08;100350.34;;;10.76;100.00
20444;BME280;10381;53.730;10.010;2023-09-30T01:20:14;100345.56;;;10.79;100.00
20444;BME280;10381;53.730;10.010;2023-09-30T01:24:22;100338.88;;;10.85;100.00
20444;BME280;10381;53.730;10.010;2023-09-30T01:28:22;100334.75;;;10.73;100.00
20444;BME280;10381;53.730;10.010;2023-09-30T01:32:23;100335.09;;;10.87;100.00
20444;BME280;10381;53.730;10.010;2023-09-30T01:36:23;100328.78;;;10.88;100.00
20444;BME280;10381;53.730;10.010;2023-09-30T01:40:23;100324.81;;;11.02;100.00
20444;BME280;10381;53.730;10.010;2023-09-30T01:44:24;100324.88;;;11.11;100.00
20444;BME280;10381;53.730;10.010;2023-09-30T01:48:24;100325.56;;;11.13;100.00
20444;BME280;10381;53.730;10.010;2023-09-30T01:52:24;100326.84;;;11.08;100.00
20444;BME280;10381;53.730;10.010;2023-09-30T01:56:25;100325.78;;;11.01;100.00
20444;BME280;10381;53.730;10.010;2023-09-30T02:00:25;100331.06;;;11.01;100.00
20444;BME280;10381;53.730;10.010;2023-09-30T02:04:28;100345.69;;;10.87;100.00
20444;BME280;10381;53.730;10.010;2023-09-30T02:08:28;100356.72;;;10.55;100.00
20444;BME280;10381;53.730;10.010;2023-09-30T02:12:28;100354.13;;;10.73;100.00
20444;BME280;10381;53.730;10.010;2023-09-30T02:16:29;100359.03;;;10.68;100.00
20444;BME280;10381;53.730;10.010;2023-09-30T02:20:29;100353.78;;;10.58;100.00
20444;BME280;10381;53.730;10.010;2023-09-30T02:24:30;100357.22;;;10.69;100.00
20444;BME280;10381;53.730;10.010;2023-09-30T02:28:31;100348.88;;;10.63;100.00
20444;BME280;10381;53.730;10.010;2023-09-30T02:32:32;100355.34;;;10.51;100.00
20444;BME280;10381;53.730;10.010;2023-09-30T02:36:33;100345.00;;;10.58;100.00
20444;BME280;10381;53.730;10.010;2023-09-30T02:40:33;100343.38;;;10.47;100.00
20444;BME280;10381;53.730;10.010;2023-09-30T02:44:33;100345.41;;;10.53;100.00
20444;BME280;10381;53.730;10.010;2023-09-30T02:48:34;100352.00;;;10.49;100.00
20444;BME280;10381;53.730;10.010;2023-09-30T02:52:34;100350.53;;;10.37;100.00
20444;BME280;10381;53.730;10.010;2023-09-30T02:56:34;100301.78;;;10.30;100.00
20444;BME280;10381;53.730;10.010;2023-09-30T03:00:35;100295.75;;;10.37;100.00
20444;BME280;10381;53.730;10.010;2023-09-30T03:04:36;100272.50;;;10.59;100.00
20444;BME280;10381;53.730;10.010;2023-09-30T03:08:36;100253.13;;;10.58;100.00
20444;BME280;10381;53.730;10.010;2023-09-30T03:12:37;100231.78;;;10.60;100.00
20444;BME280;10381;53.730;10.010;2023-09-30T03:16:38;100228.22;;;10.51;100.00
20444;BME280;10381;53.730;10.010;2023-09-30T03:20:40;100223.13;;;10.58;100.00
20444;BME280;10381;53.730;10.010;2023-09-30T03:24:43;100231.84;;;10.50;100.00
20444;BME280;10381;53.730;10.010;2023-09-30T03:28:43;100214.91;;;10.61;100.00
20444;BME280;10381;53.730;10.010;2023-09-30T03:32:44;100212.28;;;10.61;100.00
20444;BME280;10381;53.730;10.010;2023-09-30T03:36:47;100208.09;;;10.58;100.00
20444;BME280;10381;53.730;10.010;2023-09-30T03:40:47;100207.03;;;10.51;100.00
20444;BME280;10381;53.730;10.010;2023-09-30T03:44:47;100205.78;;;10.45;100.00
20444;BME280;10381;53.730;10.010;2023-09-30T03:48:51;100212.91;;;10.45;100.00
20444;BME280;10381;53.730;10.010;2023-09-30T03:52:51;100215.03;;;10.41;100.00
20444;BME280;10381;53.730;10.010;2023-09-30T03:56:52;100202.63;;;10.42;100.00
20444;BME280;10381;53.730;10.010;2023-09-30T04:00:53;100201.84;;;10.32;100.00
20444;BME280;10381;53.730;10.010;2023-09-30T04:04:53;100179.00;;;10.31;100.00
20444;BME280;10381;53.730;10.010;2023-09-30T04:08:55;100155.66;;;10.44;100.00
20444;BME280;10381;53.730;10.010;2023-09-30T04:12:58;100113.19;;;10.36;100.00
20444;BME280;10381;53.730;10.010;2023-09-30T04:16:58;100088.78;;;10.14;100.00
20444;BME280;10381;53.730;10.010;2023-09-30T04:20:59;100021.28;;;10.28;100.00
20444;BME280;10381;53.730;10.010;2023-09-30T04:24:59;99983.22;;;10.11;100.00
20444;BME280;10381;53.730;10.010;2023-09-30T04:28:59;99926.00;;;10.10;100.00
20444;BME280;10381;53.730;10.010;2023-09-30T04:33:01;99867.69;;;10.02;100.00
20444;BME280;10381;53.730;10.010;2023-09-30T04:37:04;99800.03;;;9.99;100.00
20444;BME280;10381;53.730;10.010;2023-09-30T04:41:04;99724.94;;;10.00;100.00
20444;BME280;10381;53.730;10.010;2023-09-30T04:45:08;99631.56;;;10.16;100.00
20444;BME280;10381;53.730;10.010;2023-09-30T04:49:10;99563.97;;;10.30;100.00
20444;BME280;10381;53.730;10.010;2023-09-30T04:53:10;99585.94;;;10.22;100.00
20444;BME280;10381;53.730;10.010;2023-09-30T04:57:11;99593.53;;;10.26;100.00
20444;BME280;10381;53.730;10.010;2023-09-30T05:01:11;99598.06;;;10.33;100.00
20444;BME280;10381;53.730;10.010;2023-09-30T05:05:12;99594.38;;;10.26;100.00
20444;BME280;10381;53.730;10.010;2023-09-30T05:09:12;99606.31;;;10.30;100.00
20444;BME280;10381;53.730;10.010;2023-09-30T05:13:12;99605.34;;;10.39;100.00
20444;BME280;10381;53.730;10.010;2023-09-30T05:17:12;99606.19;;;10.40;100.00
20444;BME280;10381;53.730;10.010;2023-09-30T05:21:13;99611.63;;;10.38;100.00
20444;BME280;10381;53.730;10.010;2023-09-30T05:25:14;99619.25;;;10.41;100.00
20444;BME280;10381;53.730;10.010;2023-09-30T05:29:17;99614.13;;;10.48;100.00
20444;BME280;10381;53.730;10.010;2023-09-30T05:33:18;99612.81;;;10.44;100.00
20444;BME280;10381;53.730;10.010;2023-09-30T05:37:18;99612.66;;;10.54;100.00
20444;BME280;10381;53.730;10.010;2023-09-30T05:41:21;99619.75;;;10.45;100.00
20444;BME280;10381;53.730;10.010;2023-09-30T05:45:22;99610.50;;;10.49;100.00
20444;BME280;10381;53.730;10.010;2023-09-30T05:49:23;99610.97;;;10.53;100.00
20444;BME280;10381;53.730;10.010;2023-09-30T05:53:24;99606.88;;;10.58;100.00
20444;BME280;10381;53.730;10.010;2023-09-30T05:57:25;99602.69;;;10.56;100.00
20444;BME280;10381;53.730;10.010;2023-09-30T06:01:26;99603.22;;;10.51;100.00
20444;BME280;10381;53.730;10.010;2023-09-30T06:05:28;99591.97;;;10.65;100.00
20444;BME280;10381;53.730;10.010;2023-09-30T06:09:31;99575.22;;;10.65;100.00
20444;BME280;10381;53.730;10.010;2023-09-30T06:13:32;99578.56;;;10.75;100.00
20444;BME280;10381;53.730;10.010;2023-09-30T06:17:33;99566.47;;;10.81;100.00
20444;BME280;10381;53.730;10.010;2023-09-30T06:21:33;99533.97;;;10.87;100.00
20444;BME280;10381;53.730;10.010;2023-09-30T06:25:34;99523.72;;;10.92;100.00
20444;BME280;10381;53.730;10.010;2023-09-30T06:29:35;99518.56;;;10.99;100.00
20444;BME280;10381;53.730;10.010;2023-09-30T06:33:37;99489.25;;;11.00;100.00
20444;BME280;10381;53.730;10.010;2023-09-30T06:37:39;99463.25;;;10.96;100.00
20444;BME280;10381;53.730;10.010;2023-09-30T06:41:40;99447.00;;;10.99;100.00
20444;BME280;10381;53.730;10.010;2023-09-30T06:45:40;99420.50;;;11.07;100.00
20444;BME280;10381;53.730;10.010;2023-09-30T06:49:42;99424.44;;;11.11;100.00
20444;BME280;10381;53.730;10.010;2023-09-30T06:53:42;99411.50;;;11.16;100.00
20444;BME280;10381;53.730;10.010;2023-09-30T06:57:42;99411.47;;;11.24;100.00
20444;BME280;10381;53.730;10.010;2023-09-30T07:01:43;99429.13;;;11.40;100.00
20444;BME280;10381;53.730;10.010;2023-09-30T07:05:44;99468.31;;;11.53;100.00
20444;BME280;10381;53.730;10.010;2023-09-30T07:09:44;99526.31;;;11.64;100.00
20444;BME280;10381;53.730;10.010;2023-09-30T07:13:45;99576.81;;;11.79;100.00
20444;BME280;10381;53.730;10.010;2023-09-30T07:17:45;99650.75;;;11.90;100.00
20444;BME280;10381;53.730;10.010;2023-09-30T07:21:47;99742.09;;;12.04;100.00
20444;BME280;10381;53.730;10.010;2023-09-30T07:25:47;99850.09;;;12.12;100.00
20444;BME280;10381;53.730;10.010;2023-09-30T07:29:48;99960.63;;;12.21;100.00
20444;BME280;10381;53.730;10.010;2023-09-30T07:33:49;100036.16;;;12.27;100.00
20444;BME280;10381;53.730;10.010;2023-09-30T07:37:49;100099.41;;;12.40;100.00
20444;BME280;10381;53.730;10.010;2023-09-30T07:41:53;99984.53;;;12.54;100.00
20444;BME280;10381;53.730;10.010;2023-09-30T07:45:53;99983.16;;;12.66;100.00
20444;BME280;10381;53.730;10.010;2023-09-30T07:49:54;100042.47;;;12.75;100.00
20444;BME280;10381;53.730;10.010;2023-09-30T07:53:54;100087.13;;;12.96;100.00
20444;BME280;10381;53.730;10.010;2023-09-30T07:57:56;100148.75;;;13.08;100.00
20444;BME280;10381;53.730;10.010;2023-09-30T08:01:57;100247.19;;;13.16;100.00
20444;BME280;10381;53.730;10.010;2023-09-30T08:05:57;100365.44;;;13.38;100.00
20444;BME280;10381;53.730;10.010;2023-09-30T08:09:58;100470.59;;;13.50;100.00
20444;BME280;10381;53.730;10.010;2023-09-30T08:13:59;100573.06;;;13.54;100.00
20444;BME280;10381;53.730;10.010;2023-09-30T08:17:59;100688.59;;;13.70;100.00
20444;BME280;10381;53.730;10.010;2023-09-30T08:21:59;100803.66;;;13.81;100.00
20444;BME280;10381;53.730;10.010;2023-09-30T08:25:59;100892.34;;;14.00;100.00
20444;BME280;10381;53.730;10.010;2023-09-30T08:30:00;100992.72;;;13.99;100.00
20444;BME280;10381;53.730;10.010;2023-09-30T08:34:05;101058.47;;;13.99;100.00
20444;BME280;10381;53.730;10.010;2023-09-30T08:38:05;101091.81;;;14.21;100.00
20444;BME280;10381;53.730;10.010;2023-09-30T08:42:09;101142.63;;;14.37;100.00
20444;BME280;10381;53.730;10.010;2023-09-30T08:46:11;101200.50;;;14.45;100.00
20444;BME280;10381;53.730;10.010;2023-09-30T08:50:12;101244.22;;;14.52;100.00
20444;BME280;10381;53.730;10.010;2023-09-30T08:54:14;101291.16;;;14.73;100.00
20444;BME280;10381;53.730;10.010;2023-09-30T08:58:14;101343.44;;;14.83;100.00
20444;BME280;10381;53.730;10.010;2023-09-30T09:02:16;101399.28;;;14.95;100.00
20444;BME280;10381;53.730;10.010;2023-09-30T09:06:16;101457.97;;;14.95;100.00
20444;BME280;10381;53.730;10.010;2023-09-30T09:10:17;101484.06;;;15.01;100.00
20444;BME280;10381;53.730;10.010;2023-09-30T09:14:17;101495.94;;;15.16;100.00
20444;BME280;10381;53.730;10.010;2023-09-30T09:18:34;101531.84;;;15.22;100.00
20444;BME280;10381;53.730;10.010;2023-09-30T09:22:39;101555.63;;;15.15;100.00
20444;BME280;10381;53.730;10.010;2023-09-30T09:26:40;101590.09;;;15.36;100.00
20444;BME280;10381;53.730;10.010;2023-09-30T09:30:40;101628.06;;;15.40;100.00
20444;BME280;10381;53.730;10.010;2023-09-30T09:34:43;101647.63;;;15.58;100.00
20444;BME280;10381;53.730;10.010;2023-09-30T09:38:48;101673.44;;;15.77;100.00
20444;BME280;10381;53.730;10.010;2023-09-30T09:42:51;101699.28;;;15.86;100.00
20444;BME280;10381;53.730;10.010;2023-09-30T09:46:53;101748.56;;;16.02;100.00
20444;BME280;10381;53.730;10.010;2023-09-30T09:50:54;101780.50;;;16.03;100.00
20444;BME280;10381;53.730;10.010;2023-09-30T09:54:55;101801.41;;;16.17;100.00
20444;BME280;10381;53.730;10.010;2023-09-30T09:58:57;101796.97;;;16.36;100.00
20444;BME280;10381;53.730;10.010;2023-09-30T10:02:58;101818.38;;;16.36;100.00
20444;BME280;10381;53.730;10.010;2023-09-30T10:06:59;101844.47;;;16.52;100.00
20444;BME280;10381;53.730;10.010;2023-09-30T10:11:00;101881.69;;;16.35;100.00
20444;BME280;10381;53.730;10.010;2023-09-30T10:19:29;101904.75;;;16.74;100.00
20444;BME280;10381;53.730;10.010;2023-09-30T10:23:32;101929.38;;;16.87;100.00
20444;BME280;10381;53.730;10.010;2023-09-30T10:27:35;101913.69;;;17.20;100.00
20444;BME280;10381;53.730;10.010;2023-09-30T10:31:49;101973.06;;;17.15;100.00
20444;BME280;10381;53.730;10.010;2023-09-30T10:35:52;101995.50;;;17.04;100.00
20444;BME280;10381;53.730;10.010;2023-09-30T10:39:57;101975.88;;;17.32;100.00
20444;BME280;10381;53.730;10.010;2023-09-30T10:44:32;101982.81;;;16.69;100.00
20444;BME280;10381;53.730;10.010;2023-09-30T10:48:34;101983.84;;;16.49;100.00
20444;BME280;10381;53.730;10.010;2023-09-30T10:52:38;101977.16;;;16.72;100.00
20444;BME280;10381;53.730;10.010;2023-09-30T10:56:38;101999.00;;;17.05;100.00
20444;BME280;10381;53.730;10.010;2023-09-30T11:00:38;102013.75;;;17.19;100.00
20444;BME280;10381;53.730;10.010;2023-09-30T11:04:46;102055.56;;;16.92;100.00
20444;BME280;10381;53.730;10.010;2023-09-30T11:08:53;102050.41;;;17.18;100.00
20444;BME280;10381;53.730;10.010;2023-09-30T11:12:58;102071.88;;;17.09;100.00
20444;BME280;10381;53.730;10.010;2023-09-30T11:17:02;102066.91;;;17.14;100.00
20444;BME280;10381;53.730;10.010;2023-09-30T11:21:05;102071.63;;;17.57;100.00
20444;BME280;10381;53.730;10.010;2023-09-30T11:25:06;102081.97;;;17.15;100.00
20444;BME280;10381;53.730;10.010;2023-09-30T11:29:10;102078.81;;;17.29;100.00
20444;BME280;10381;53.730;10.010;2023-09-30T11:33:16;102111.38;;;17.34;100.00
20444;BME280;10381;53.730;10.010;2023-09-30T11:37:16;102106.44;;;17.39;100.00
20444;BME280;10381;53.730;10.010;2023-09-30T11:41:17;102131.53;;;17.66;100.00
20444;BME280;10381;53.730;10.010;2023-09-30T11:45:22;102123.94;;;17.24;100.00
20444;BME280;10381;53.730;10.010;2023-09-30T11:49:35;102104.22;;;17.25;100.00
20444;BME280;10381;53.730;10.010;2023-09-30T11:53:36;102096.13;;;17.62;100.00
20444;BME280;10381;53.730;10.010;2023-09-30T11:57:36;102112.47;;;17.69;100.00
20444;BME280;10381;53.730;10.010;2023-09-30T12:01:37;102124.19;;;17.96;100.00
20444;BME280;10381;53.730;10.010;2023-09-30T12:05:37;102129.75;;;17.57;100.00
20444;BME280;10381;53.730;10.010;2023-09-30T12:09:38;102108.78;;;18.16;100.00
20444;BME280;10381;53.730;10.010;2023-09-30T12:13:39;102106.22;;;17.78;100.00
20444;BME280;10381;53.730;10.010;2023-09-30T12:17:39;102108.94;;;17.41;100.00
20444;BME280;10381;53.730;10.010;2023-09-30T12:21:40;102116.25;;;18.04;100.00
20444;BME280;10381;53.730;10.010;2023-09-30T12:25:40;102115.16;;;17.41;100.00
20444;BME280;10381;53.730;10.010;2023-09-30T12:29:40;102103.31;;;17.07;100.00
20444;BME280;10381;53.730;10.010;2023-09-30T12:33:41;102086.91;;;16.82;100.00
20444;BME280;10381;53.730;10.010;2023-09-30T12:37:41;102082.31;;;17.02;100.00
20444;BME280;10381;53.730;10.010;2023-09-30T12:41:43;102081.19;;;17.04;100.00
20444;BME280;10381;53.730;10.010;2023-09-30T12:45:44;102074.66;;;17.17;100.00
20444;BME280;10381;53.730;10.010;2023-09-30T12:49:45;102080.13;;;17.25;100.00
20444;BME280;10381;53.730;10.010;2023-09-30T12:53:45;102076.56;;;16.97;100.00
20444;BME280;10381;53.730;10.010;2023-09-30T12:57:46;102060.59;;;17.05;100.00
20444;BME280;10381;53.730;10.010;2023-09-30T13:01:46;102060.09;;;16.92;100.00
20444;BME280;10381;53.730;10.010;2023-09-30T13:05:48;102043.78;;;16.85;100.00
20444;BME280;10381;53.730;10.010;2023-09-30T13:09:48;102052.72;;;17.03;100.00
20444;BME280;10381;53.730;10.010;2023-09-30T13:13:49;102034.50;;;16.79;100.00
20444;BME280;10381;53.730;10.010;2023-09-30T13:17:49;102047.72;;;16.81;100.00
20444;BME280;10381;53.730;10.010;2023-09-30T13:21:50;102050.75;;;17.06;100.00
20444;BME280;10381;53.730;10.010;2023-09-30T13:25:50;102063.06;;;17.54;100.00
20444;BME280;10381;53.730;10.010;2023-09-30T13:29:51;102094.25;;;17.45;100.00
20444;BME280;10381;53.730;10.010;2023-09-30T13:33:54;102094.34;;;17.25;100.00
20444;BME280;10381;53.730;10.010;2023-09-30T13:37:55;102074.25;;;17.12;100.00
20444;BME280;10381;53.730;10.010;2023-09-30T13:41:55;102062.91;;;16.90;100.00
20444;BME280;10381;53.730;10.010;2023-09-30T13:45:55;102050.88;;;17.04;100.00
20444;BME280;10381;53.730;10.010;2023-09-30T13:49:56;102047.59;;;17.20;100.00
20444;BME280;10381;53.730;10.010;2023-09-30T13:53:57;102030.81;;;16.80;100.00
20444;BME280;10381;53.730;10.010;2023-09-30T13:57:57;102040.63;;;16.99;100.00
20444;BME280;10381;53.730;10.010;2023-09-30T14:01:57;102029.72;;;17.11;100.00
20444;BME280;10381;53.730;10.010;2023-09-30T14:05:58;102029.78;;;17.01;100.00
20444;BME280;10381;53.730;10.010;2023-09-30T14:09:59;102033.28;;;17.01;100.00
20444;BME280;10381;53.730;10.010;2023-09-30T14:13:59;102028.81;;;16.92;100.00
20444;BME280;10381;53.730;10.010;2023-09-30T14:18:00;102016.09;;;16.47;100.00
20444;BME280;10381;53.730;10.010;2023-09-30T14:22:02;102005.63;;;16.64;100.00
20444;BME280;10381;53.730;10.010;2023-09-30T14:26:04;101991.03;;;16.58;100.00
20444;BME280;10381;53.730;10.010;2023-09-30T14:30:11;101990.34;;;16.46;100.00
20444;BME280;10381;53.730;10.010;2023-09-30T14:34:11;101979.94;;;16.43;100.00
20444;BME280;10381;53.730;10.010;2023-09-30T14:38:12;101992.91;;;16.28;100.00
20444;BME280;10381;53.730;10.010;2023-09-30T14:42:12;101978.94;;;16.44;100.00
20444;BME280;10381;53.730;10.010;2023-09-30T14:46:12;101983.84;;;16.58;100.00
20444;BME280;10381;53.730;10.010;2023-09-30T14:50:12;101989.34;;;16.47;100.00
20444;BME280;10381;53.730;10.010;2023-09-30T14:54:13;101982.88;;;16.40;100.00
20444;BME280;10381;53.730;10.010;2023-09-30T14:58:13;101995.06;;;16.72;100.00
20444;BME280;10381;53.730;10.010;2023-09-30T15:02:14;102000.19;;;16.55;100.00
20444;BME280;10381;53.730;10.010;2023-09-30T15:06:15;102031.97;;;16.68;100.00
20444;BME280;10381;53.730;10.010;2023-09-30T15:10:15;102035.53;;;16.49;100.00
20444;BME280;10381;53.730;10.010;2023-09-30T15:14:15;102054.69;;;16.45;100.00
20444;BME280;10381;53.730;10.010;2023-09-30T15:18:16;102059.59;;;16.49;100.00
20444;BME280;10381;53.730;10.010;2023-09-30T15:22:16;102059.34;;;16.23;100.00
20444;BME280;10381;53.730;10.010;2023-09-30T15:26:16;102039.50;;;16.06;100.00
20444;BME280;10381;53.730;10.010;2023-09-30T15:30:17;102031.22;;;16.00;100.00
20444;BME280;10381;53.730;10.010;2023-09-30T15:34:18;102013.47;;;15.89;100.00
20444;BME280;10381;53.730;10.010;2023-09-30T15:38:18;102003.38;;;15.73;100.00
20444;BME280;10381;53.730;10.010;2023-09-30T15:42:18;101984.34;;;15.66;100.00
20444;BME280;10381;53.730;10.010;2023-09-30T15:46:19;101961.28;;;15.65;100.00
20444;BME280;10381;53.730;10.010;2023-09-30T15:50:19;101957.34;;;15.69;100.00
20444;BME280;10381;53.730;10.010;2023-09-30T15:54:20;101949.47;;;15.58;100.00
20444;BME280;10381;53.730;10.010;2023-09-30T15:58:20;101937.38;;;15.54;100.00
20444;BME280;10381;53.730;10.010;2023-09-30T16:02:20;101934.97;;;15.51;100.00
20444;BME280;10381;53.730;10.010;2023-09-30T16:06:20;101934.97;;;15.51;100.00
20444;BME280;10381;53.730;10.010;2023-09-30T16:10:21;101935.97;;;15.40;100.00
20444;BME280;10381;53.730;10.010;2023-09-30T16:14:21;101913.03;;;15.28;100.00
20444;BME280;10381;53.730;10.010;2023-09-30T16:18:21;101906.84;;;15.18;100.00
20444;BME280;10381;53.730;10.010;2023-09-30T16:22:21;101879.00;;;15.01;100.00
20444;BME280;10381;53.730;10.010;2023-09-30T16:26:22;101859.75;;;14.87;100.00
20444;BME280;10381;53.730;10.010;2023-09-30T16:30:22;101839.66;;;14.83;100.00
20444;BME280;10381;53.730;10.010;2023-09-30T16:34:22;101825.31;;;14.75;100.00
20444;BME280;10381;53.730;10.010;2023-09-30T16:38:23;101829.94;;;14.73;100.00
20444;BME280;10381;53.730;10.010;2023-09-30T16:42:24;101824.59;;;14.63;100.00
20444;BME280;10381;53.730;10.010;2023-09-30T16:46:25;101814.63;;;14.55;100.00
20444;BME280;10381;53.730;10.010;2023-09-30T16:50:25;101798.09;;;14.40;100.00
20444;BME280;10381;53.730;10.010;2023-09-30T16:54:25;101781.16;;;14.41;100.00
20444;BME280;10381;53.730;10.010;2023-09-30T16:58:26;101773.66;;;14.35;100.00
20444;BME280;10381;53.730;10.010;2023-09-30T17:02:26;101748.66;;;14.17;100.00
20444;BME280;10381;53.730;10.010;2023-09-30T17:06:26;101717.28;;;13.90;100.00
20444;BME280;10381;53.730;10.010;2023-09-30T17:10:27;101675.97;;;13.95;100.00
20444;BME280;10381;53.730;10.010;2023-09-30T17:14:27;101639.22;;;13.58;100.00
20444;BME280;10381;53.730;10.010;2023-09-30T17:18:29;101573.31;;;13.41;100.00
20444;BME280;10381;53.730;10.010;2023-09-30T17:22:29;101503.75;;;13.25;100.00
20444;BME280;10381;53.730;10.010;2023-09-30T17:26:30;101458.31;;;12.97;100.00
20444;BME280;10381;53.730;10.010;2023-09-30T17:30:30;101416.97;;;12.83;100.00
20444;BME280;10381;53.730;10.010;2023-09-30T17:34:30;101330.06;;;12.93;100.00
20444;BME280;10381;53.730;10.010;2023-09-30T17:38:31;101270.19;;;12.99;100.00
20444;BME280;10381;53.730;10.010;2023-09-30T17:42:32;101234.34;;;13.03;100.00
20444;BME280;10381;53.730;10.010;2023-09-30T17:46:33;101220.31;;;13.01;100.00
20444;BME280;10381;53.730;10.010;2023-09-30T17:50:33;101206.38;;;12.89;100.00
20444;BME280;10381;53.730;10.010;2023-09-30T17:54:33;101205.78;;;13.05;100.00
20444;BME280;10381;53.730;10.010;2023-09-30T17:58:34;101219.25;;;13.04;100.00
20444;BME280;10381;53.730;10.010;2023-09-30T18:02:34;101217.09;;;13.17;100.00
20444;BME280;10381;53.730;10.010;2023-09-30T18:06:35;101239.63;;;13.22;100.00
20444;BME280;10381;53.730;10.010;2023-09-30T18:10:35;101273.25;;;13.24;100.00
20444;BME280;10381;53.730;10.010;2023-09-30T18:14:35;101293.44;;;13.16;100.00
20444;BME280;10381;53.730;10.010;2023-09-30T18:18:37;101297.63;;;12.99;100.00
20444;BME280;10381;53.730;10.010;2023-09-30T18:22:37;101281.06;;;12.86;100.00
20444;BME280;10381;53.730;10.010;2023-09-30T18:26:38;101240.78;;;12.91;100.00
20444;BME280;10381;53.730;10.010;2023-09-30T18:30:39;101205.50;;;12.89;100.00
20444;BME280;10381;53.730;10.010;2023-09-30T18:34:43;101182.56;;;12.88;100.00
20444;BME280;10381;53.730;10.010;2023-09-30T18:38:43;101167.03;;;12.83;100.00
20444;BME280;10381;53.730;10.010;2023-09-30T18:42:46;101161.44;;;12.76;100.00
20444;BME280;10381;53.730;10.010;2023-09-30T18:46:46;101136.66;;;12.86;100.00
20444;BME280;10381;53.730;10.010;2023-09-30T18:50:50;101135.34;;;13.09;100.00
20444;BME280;10381;53.730;10.010;2023-09-30T18:54:51;101151.03;;;13.12;100.00
20444;BME280;10381;53.730;10.010;2023-09-30T18:58:51;101165.44;;;13.10;100.00
20444;BME280;10381;53.730;10.010;2023-09-30T19:02:52;101183.09;;;13.01;100.00
20444;BME280;10381;53.730;10.010;2023-09-30T19:06:52;101178.06;;;12.98;100.00
20444;BME280;10381;53.730;10.010;2023-09-30T19:10:52;101151.34;;;12.99;100.00
20444;BME280;10381;53.730;10.010;2023-09-30T19:14:52;101156.75;;;13.17;100.00
20444;BME280;10381;53.730;10.010;2023-09-30T19:18:53;101161.81;;;13.20;100.00
20444;BME280;10381;53.730;10.010;2023-09-30T19:22:54;101181.69;;;13.16;100.00
20444;BME280;10381;53.730;10.010;2023-09-30T19:26:54;101198.06;;;13.21;100.00
20444;BME280;10381;53.730;10.010;2023-09-30T19:30:55;101214.44;;;13.17;100.00
20444;BME280;10381;53.730;10.010;2023-09-30T19:34:55;101215.03;;;13.20;100.00
20444;BME280;10381;53.730;10.010;2023-09-30T19:38:57;101220.88;;;13.24;100.00
20444;BME280;10381;53.730;10.010;2023-09-30T19:42:57;101227.75;;;13.27;100.00
20444;BME280;10381;53.730;10.010;2023-09-30T19:46:58;101228.16;;;13.22;100.00
20444;BME280;10381;53.730;10.010;2023-09-30T19:50:58;101215.69;;;13.22;100.00
20444;BME280;10381;53.730;10.010;2023-09-30T19:54:58;101210.53;;;13.11;100.00
20444;BME280;10381;53.730;10.010;2023-09-30T19:58:59;101200.16;;;13.08;100.00
20444;BME280;10381;53.730;10.010;2023-09-30T20:02:59;101182.66;;;13.15;100.00
20444;BME280;10381;53.730;10.010;2023-09-30T20:07:00;101178.63;;;13.11;100.00
20444;BME280;10381;53.730;10.010;2023-09-30T20:11:00;101188.84;;;13.16;100.00
20444;BME280;10381;53.730;10.010;2023-09-30T20:15:01;101187.56;;;13.10;100.00
20444;BME280;10381;53.730;10.010;2023-09-30T20:19:02;101181.97;;;13.13;100.00
20444;BME280;10381;53.730;10.010;2023-09-30T20:23:03;101175.81;;;13.03;100.00
20444;BME280;10381;53.730;10.010;2023-09-30T20:27:03;101154.84;;;13.00;100.00
20444;BME280;10381;53.730;10.010;2023-09-30T20:31:04;101140.81;;;13.08;100.00
20444;BME280;10381;53.730;10.010;2023-09-30T20:35:04;101133.69;;;12.98;100.00